Time;durP1;ratioP1;P1;durP2;ratioP2;P2;SDS_P1;SDS_P2;PMS_P1;PMS_P2;Temp;Humidity;BMP_temperature;BMP_pressure;BME280_temperature;BME280_humidity;BME280_pressure;Samples;Min_cycle;Max_cycle;Signal;HPM_P1;HPM_P2
2021/09/15 00:01:56;;;;;;;15.93;8.33;;;;;;;14.82;74.91;100967.61;4853931;60;1140998;-82
2021/09/15 00:07:01;;;;;;;19.30;8.87;;;;;;;14.82;75.18;100961.77;4854550;60;1141164;-82
2021/09/15 00:12:07;;;;;;;13.60;9.00;;;;;;;14.83;75.35;100964.78;4854978;60;1141127;-83
2021/09/15 00:17:14;;;;;;;11.67;7.70;;;;;;;14.78;75.49;100958.55;4870856;59;1141169;-82
2021/09/15 00:22:20;;;;;;;17.93;7.73;;;;;;;14.79;75.72;100959.39;4871620;59;1141188;-83
2021/09/15 00:27:26;;;;;;;11.57;8.13;;;;;;;14.86;75.96;100953.02;4885332;59;1141119;-82
2021/09/15 00:32:31;;;;;;;13.73;7.57;;;;;;;14.84;76.15;100949.65;4885192;59;1141176;-82
2021/09/15 00:37:37;;;;;;;16.37;9.20;;;;;;;14.84;76.36;100946.50;4885132;59;1141236;-83
2021/09/15 00:42:44;;;;;;;14.37;7.03;;;;;;;14.81;76.57;100947.28;4843856;59;1140931;-81
2021/09/15 00:47:51;;;;;;;13.03;7.60;;;;;;;14.79;76.68;100946.08;4806283;60;1141106;-82
2021/09/15 00:52:59;;;;;;;15.20;7.97;;;;;;;14.81;76.83;100935.30;4806219;60;1141094;-82
2021/09/15 00:58:07;;;;;;;14.05;8.83;;;;;;;14.80;77.00;100930.95;4806962;60;1141125;-84
2021/09/15 01:03:14;;;;;;;11.57;6.85;;;;;;;14.75;77.09;100935.34;4798939;59;1141294;-82
2021/09/15 01:08:21;;;;;;;9.00;6.53;;;;;;;14.62;76.94;100930.27;4807628;60;1141194;-83
2021/09/15 01:13:29;;;;;;;13.43;8.15;;;;;;;14.55;77.29;100919.78;4807741;60;1139112;-84
2021/09/15 01:18:37;;;;;;;17.17;9.27;;;;;;;14.51;77.57;100919.72;4761332;60;1141000;-82
2021/09/15 01:24:02;;;;;;;10.43;7.27;;;;;;;14.45;77.78;100904.77;4775865;59;1141079;-81
2021/09/15 01:29:30;;;;;;;15.63;7.28;;;;;;;14.45;77.78;100904.77;4760460;59;1141252;-84
2021/09/15 01:34:41;;;;;;;15.17;7.17;;;;;;;14.46;77.67;100907.78;4778392;59;1141253;-83
2021/09/15 01:39:48;;;;;;;12.43;7.57;;;;;;;14.43;78.03;100911.55;4779124;59;1141133;-83
2021/09/15 01:44:55;;;;;;;11.27;7.77;;;;;;;14.43;78.41;100916.38;4851660;59;1141044;-84
2021/09/15 01:50:01;;;;;;;15.60;7.67;;;;;;;14.47;78.74;100929.43;4854870;59;1141418;-82
2021/09/15 01:55:10;;;;;;;13.43;6.97;;;;;;;14.51;78.72;100919.72;4854628;59;1141007;-85
2021/09/15 02:00:17;;;;;;;10.90;7.53;;;;;;;14.55;78.73;100918.45;4823194;59;1140998;-83
2021/09/15 02:05:28;;;;;;;12.37;8.33;;;;;;;14.55;78.88;100919.78;4853806;59;1141104;-82
2021/09/15 02:10:35;;;;;;;12.67;8.53;;;;;;;14.53;78.98;100916.41;4853125;59;1140999;-83
2021/09/15 02:15:42;;;;;;;10.03;7.43;;;;;;;14.49;79.03;100916.84;4854493;59;1141501;-82
2021/09/15 02:20:48;;;;;;;13.27;7.20;;;;;;;14.48;78.92;100909.34;4879920;59;1141106;-82
2021/09/15 02:26:12;;;;;;;15.27;9.10;;;;;;;14.50;79.12;100910.54;4820541;59;1141073;-82
2021/09/15 02:31:20;;;;;;;12.03;8.70;;;;;;;14.49;79.28;100906.19;4892612;59;1141058;-82
2021/09/15 02:36:43;;;;;;;18.48;8.53;;;;;;;14.51;79.43;100901.09;4894342;59;1141165;-85
2021/09/15 02:41:51;;;;;;;15.03;8.43;;;;;;;14.46;79.36;100891.81;4865840;59;1140895;-82
2021/09/15 02:46:58;;;;;;;15.03;8.40;;;;;;;14.41;79.38;100894.38;4815379;59;1141011;-84
2021/09/15 02:52:06;;;;;;;16.70;8.43;;;;;;;14.38;79.33;100893.28;4815384;60;1140832;-84
2021/09/15 02:57:14;;;;;;;17.30;9.43;;;;;;;14.39;79.67;100898.12;4831999;59;1141057;-85
2021/09/15 03:02:25;;;;;;;16.30;9.37;;;;;;;14.38;79.77;100901.75;4817497;60;1140968;-82
2021/09/15 03:07:44;;;;;;;15.03;9.17;;;;;;;14.34;79.87;100893.70;4814068;59;1141082;-82
2021/09/15 03:12:50;;;;;;;15.13;8.20;;;;;;;14.34;79.86;100893.70;4817225;60;1140929;-84
2021/09/15 03:17:56;;;;;;;20.35;9.30;;;;;;;14.32;79.88;100889.84;4817293;60;1140910;-83
2021/09/15 03:23:03;;;;;;;22.50;9.20;;;;;;;14.33;80.22;100886.21;4816966;60;1140855;-83
2021/09/15 03:28:09;;;;;;;12.87;8.17;;;;;;;14.29;80.39;100864.83;4817561;60;1140787;-83
2021/09/15 03:33:16;;;;;;;23.40;10.23;;;;;;;14.26;80.47;100866.42;4817541;60;1140799;-86
2021/09/15 03:38:23;;;;;;;20.62;10.70;;;;;;;14.21;80.68;100863.31;4817170;60;1143230;-86
2021/09/15 03:43:29;;;;;;;18.87;10.23;;;;;;;14.15;80.95;100853.23;4868948;59;1142918;-84
2021/09/15 03:48:36;;;;;;;17.03;9.30;;;;;;;14.10;81.35;100847.45;4890019;59;1142923;-82
2021/09/15 03:53:42;;;;;;;11.23;8.43;;;;;;;14.11;81.40;100842.98;4891461;59;1140834;-84
2021/09/15 03:58:48;;;;;;;13.93;9.73;;;;;;;14.11;81.47;100853.62;4894843;59;1140914;-89
2021/09/15 04:03:55;;;;;;;17.57;11.17;;;;;;;14.14;81.66;100849.37;4847115;59;1140905;-86
2021/09/15 04:09:02;;;;;;;15.80;9.70;;;;;;;14.14;81.81;100839.57;4894944;59;1143127;-84
2021/09/15 04:14:08;;;;;;;13.37;8.07;;;;;;;14.13;81.83;100833.89;4894995;59;1140952;-83
2021/09/15 04:19:14;;;;;;;24.57;10.63;;;;;;;14.13;81.84;100835.71;4894743;59;1140990;-84
2021/09/15 04:34:52;;;;;;;27.70;10.10;;;;;;;14.08;82.13;100844.92;4864286;60;1143221;-89
2021/09/15 04:39:58;;;;;;;15.97;10.80;;;;;;;14.14;82.24;100848.88;4864049;60;1142951;-83
2021/09/15 04:45:05;;;;;;;22.57;11.70;;;;;;;14.15;82.26;100829.28;4864503;60;1142954;-82
2021/09/15 04:50:10;;;;;;;18.63;11.43;;;;;;;14.16;82.31;100848.75;4864460;60;1143060;-85
2021/09/15 04:55:17;;;;;;;18.10;10.33;;;;;;;14.16;82.40;100844.77;4864252;60;1143012;-82
2021/09/15 05:00:24;;;;;;;19.87;10.65;;;;;;;14.18;82.30;100836.16;4864286;60;1143095;-81
2021/09/15 05:05:31;;;;;;;24.87;11.38;;;;;;;14.20;82.21;100839.53;4863707;60;1143161;-88
2021/09/15 05:10:38;;;;;;;16.73;11.50;;;;;;;14.20;82.38;100836.87;4864410;60;1142895;-85
2021/09/15 05:15:44;;;;;;;18.77;10.17;;;;;;;14.19;82.69;100827.20;4864282;60;1142896;-83
2021/09/15 05:20:51;;;;;;;20.87;10.07;;;;;;;14.21;83.05;100826.06;4864159;60;1143178;-90
2021/09/15 05:25:57;;;;;;;22.35;11.48;;;;;;;14.18;82.82;100818.38;4864155;59;1143325;-83
2021/09/15 05:31:04;;;;;;;28.60;13.03;;;;;;;14.14;83.11;100813.45;4864291;60;1142977;-83
2021/09/15 05:36:10;;;;;;;19.90;10.67;;;;;;;14.12;83.40;100802.11;4864174;60;1142878;-84
2021/09/15 05:41:16;;;;;;;18.60;10.70;;;;;;;14.14;83.93;100807.65;4846903;60;1143031;-82
2021/09/15 05:46:22;;;;;;;21.47;12.57;;;;;;;14.18;84.10;100806.41;4788864;61;1142919;-86
2021/09/15 05:51:30;;;;;;;30.32;13.00;;;;;;;14.26;84.44;100800.40;4788859;61;1142869;-87
2021/09/15 05:56:38;;;;;;;16.70;11.57;;;;;;;14.33;84.71;100805.06;4788493;61;1143053;-84
2021/09/15 06:01:44;;;;;;;23.97;12.20;;;;;;;14.47;84.65;100809.18;4788221;61;1142914;-83
2021/09/15 06:06:50;;;;;;;25.63;12.10;;;;;;;14.63;84.49;100813.97;4789068;61;1142993;-87
2021/09/15 06:11:58;;;;;;;30.53;13.80;;;;;;;14.77;84.64;100814.90;4788898;61;1142901;-83
2021/09/15 06:17:06;;;;;;;17.63;12.27;;;;;;;14.91;84.53;100812.31;4789089;61;1143073;-85
2021/09/15 06:22:12;;;;;;;19.13;13.43;;;;;;;15.06;84.32;100802.43;4789233;60;1142933;-88
2021/09/15 06:27:22;;;;;;;23.27;13.70;;;;;;;15.24;84.11;100795.91;4809728;60;1142958;-85
2021/09/15 06:32:27;;;;;;;24.95;12.85;;;;;;;15.38;84.39;100775.95;4818555;59;1143061;-86
2021/09/15 06:37:34;;;;;;;18.62;11.75;;;;;;;15.56;84.37;100774.76;4818709;59;1142992;-84
2021/09/15 06:42:40;;;;;;;22.70;15.17;;;;;;;15.76;84.00;100796.35;4857613;59;1143011;-84
2021/09/15 06:47:46;;;;;;;26.27;14.80;;;;;;;16.11;83.78;100797.00;4895334;59;1142985;-82
2021/09/15 06:52:52;;;;;;;19.73;12.27;;;;;;;16.11;83.78;100797.00;4895134;59;1143030;-86
2021/09/15 06:57:58;;;;;;;22.50;15.07;;;;;;;16.27;83.32;100801.20;4895258;59;1143097;-82
2021/09/15 07:03:05;;;;;;;23.63;14.57;;;;;;;16.47;83.37;100790.77;4895174;59;1142887;-88
2021/09/15 07:08:11;;;;;;;21.40;14.30;;;;;;;16.70;83.49;100781.83;4893147;59;1142921;-88
2021/09/15 07:13:17;;;;;;;23.57;13.43;;;;;;;16.79;82.16;100778.77;4895015;59;1143495;-87
2021/09/15 07:18:23;;;;;;;22.73;15.10;;;;;;;16.87;82.17;100781.00;4894971;59;1143081;-82
2021/09/15 07:23:29;;;;;;;29.35;13.32;;;;;;;16.95;82.13;100786.92;4894922;59;1143017;-88
2021/09/15 07:28:34;;;;;;;26.27;14.97;;;;;;;17.12;82.41;100798.07;4872072;59;1142910;-85
2021/09/15 07:33:40;;;;;;;19.27;13.93;;;;;;;17.54;81.68;100784.88;4864262;60;1142948;-88
2021/09/15 07:38:46;;;;;;;22.70;15.50;;;;;;;17.54;81.68;100784.88;4864606;60;1143038;-82
2021/09/15 07:43:51;;;;;;;25.10;15.57;;;;;;;17.72;81.64;100788.83;4807317;60;1143383;-88
2021/09/15 07:48:57;;;;;;;25.20;14.70;;;;;;;17.82;81.13;100796.27;4788575;60;1143309;-84
2021/09/15 07:54:05;;;;;;;34.70;15.83;;;;;;;17.91;81.00;100781.92;4788748;60;1142973;-87
2021/09/15 07:59:11;;;;;;;32.40;17.90;;;;;;;17.96;80.62;100771.24;4788545;60;1142921;-86
2021/09/15 08:04:16;;;;;;;26.43;16.63;;;;;;;18.00;80.80;100763.23;4788387;60;1143112;-83
2021/09/15 08:09:23;;;;;;;28.20;17.07;;;;;;;18.07;80.77;100768.27;4852960;60;1143028;-85
2021/09/15 08:14:29;;;;;;;32.03;17.57;;;;;;;18.16;80.54;100774.02;4864283;60;1142950;-83
2021/09/15 08:19:35;;;;;;;28.90;17.03;;;;;;;18.22;80.44;100779.54;4863682;60;1142897;-83
2021/09/15 08:24:41;;;;;;;31.50;18.77;;;;;;;18.27;80.43;100783.92;4863885;60;1143061;-86
2021/09/15 08:29:46;;;;;;;27.43;18.17;;;;;;;18.32;80.35;100768.72;4860607;59;1143217;-82
2021/09/15 08:34:52;;;;;;;36.63;17.90;;;;;;;18.40;80.29;100769.22;4859572;60;1142989;-80
2021/09/15 08:39:58;;;;;;;35.40;18.87;;;;;;;18.48;80.55;100786.17;4859656;60;1143056;-86
2021/09/15 08:45:10;;;;;;;30.43;17.70;;;;;;;18.53;80.35;100784.31;4863723;60;1143158;-90
2021/09/15 08:50:18;;;;;;;31.25;17.85;;;;;;;18.61;80.31;100783.88;4864395;60;1143010;-89
2021/09/15 08:55:24;;;;;;;27.00;18.12;;;;;;;18.77;80.39;100779.55;4864282;60;1142888;-85
2021/09/15 09:00:30;;;;;;;33.53;18.50;;;;;;;18.98;79.86;100777.20;4864131;60;1143044;-82
2021/09/15 09:05:37;;;;;;;29.05;17.48;;;;;;;19.20;80.32;100774.38;4863876;60;1142860;-80
2021/09/15 09:10:48;;;;;;;25.80;17.73;;;;;;;19.41;79.51;100771.98;4863550;60;1143229;-85
2021/09/15 09:15:53;;;;;;;29.87;18.48;;;;;;;19.68;79.20;100765.44;4863520;60;1142943;-83
2021/09/15 09:20:59;;;;;;;31.17;19.00;;;;;;;19.94;78.11;100758.47;4863294;60;1143041;-84
2021/09/15 09:26:05;;;;;;;24.55;17.25;;;;;;;20.15;78.28;100754.70;4863263;60;1142922;-83
2021/09/15 09:31:13;;;;;;;39.15;18.90;;;;;;;20.40;77.06;100751.39;4862961;59;1143001;-82
2021/09/15 09:36:31;;;;;;;28.27;16.95;;;;;;;20.53;76.13;100748.12;4862975;60;1142928;-81
2021/09/15 09:41:38;;;;;;;21.73;17.50;;;;;;;20.53;75.64;100752.15;4827764;60;1142946;-85
2021/09/15 09:46:43;;;;;;;26.80;17.30;;;;;;;20.61;75.62;100742.70;4863053;60;1142918;-85
2021/09/15 09:51:55;;;;;;;27.48;16.70;;;;;;;20.74;75.20;100734.05;4862680;60;1142964;-85
2021/09/15 09:57:01;;;;;;;30.60;18.30;;;;;;;20.82;74.86;100735.31;4863487;60;1143113;-86
2021/09/15 10:02:07;;;;;;;34.65;19.50;;;;;;;21.00;75.43;100728.60;4853918;60;1143210;-83
2021/09/15 10:07:15;;;;;;;26.57;18.50;;;;;;;21.21;74.04;100735.19;4872521;60;1142976;-85
2021/09/15 10:12:21;;;;;;;27.30;18.83;;;;;;;21.37;74.06;100734.52;4863754;60;1143026;-83
2021/09/15 10:17:30;;;;;;;28.07;17.92;;;;;;;21.62;73.60;100713.55;4863886;60;1143007;-84
2021/09/15 10:22:43;;;;;;;29.45;17.12;;;;;;;21.78;72.84;100699.05;4864060;60;1142921;-86
2021/09/15 10:28:04;;;;;;;23.50;17.20;;;;;;;21.87;71.92;100696.57;4863896;60;1142938;-87
2021/09/15 10:33:40;;;;;;;25.23;16.05;;;;;;;22.00;70.98;100695.92;4863364;58;1143166;-86
2021/09/15 10:39:01;;;;;;;23.45;16.52;;;;;;;22.19;69.00;100692.63;4863318;60;1142955;-85
2021/09/15 10:44:10;;;;;;;21.20;14.90;;;;;;;22.24;67.50;100685.34;4863377;60;1142946;-86
2021/09/15 10:49:26;;;;;;;23.15;16.62;;;;;;;22.29;66.77;100672.97;4863200;60;1142982;-86
2021/09/15 10:54:52;;;;;;;26.65;16.20;;;;;;;22.37;66.74;100663.91;4863719;60;1143236;-87
2021/09/15 11:00:11;;;;;;;27.80;14.47;;;;;;;22.41;66.99;100673.29;4863587;60;1143096;-85
2021/09/15 11:05:41;;;;;;;23.55;13.72;;;;;;;22.40;66.79;100671.11;4859961;60;1142976;-87
2021/09/15 11:10:47;;;;;;;19.95;13.38;;;;;;;22.39;66.45;100664.05;4863649;60;1142905;-82
2021/09/15 11:15:54;;;;;;;18.27;14.38;;;;;;;22.41;65.80;100650.38;4863711;60;1142910;-85
2021/09/15 11:21:10;;;;;;;12.70;10.35;;;;;;;22.42;65.75;100658.80;4863639;60;1143008;-85
2021/09/15 11:26:11;;;;;;;14.93;10.60;;;;;;;22.48;66.31;100658.00;4767194;61;1142908;-83
2021/09/15 11:31:17;;;;;;;17.90;11.83;;;;;;;22.68;66.19;100652.80;4767101;61;1143044;-82
2021/09/15 11:36:23;;;;;;;21.93;12.93;;;;;;;22.94;65.38;100651.69;4767109;60;1142947;-81
2021/09/15 11:41:28;;;;;;;15.95;11.43;;;;;;;23.16;63.67;100644.37;4792750;60;1143052;-82
2021/09/15 11:46:37;;;;;;;17.23;10.93;;;;;;;23.19;64.65;100649.39;4863312;60;1142869;-83
2021/09/15 11:51:43;;;;;;;15.18;10.03;;;;;;;23.22;64.03;100647.62;4863173;60;1143036;-82
2021/09/15 12:01:55;;;;;;;17.70;10.10;;;;;;;23.27;64.97;100633.53;4863778;60;1140893;-88
2021/09/15 12:07:02;;;;;;;18.27;11.55;;;;;;;23.35;64.80;100633.39;4863427;60;1142965;-81
2021/09/15 12:12:10;;;;;;;10.20;9.00;;;;;;;23.53;64.35;100632.90;4863311;60;1143014;-85
2021/09/15 12:17:16;;;;;;;15.03;10.93;;;;;;;23.79;64.42;100625.73;4863684;60;1141143;-81
2021/09/15 12:22:29;;;;;;;16.97;11.12;;;;;;;24.19;64.03;100615.02;4863283;60;1142956;-85
2021/09/15 12:27:37;;;;;;;15.13;10.10;;;;;;;24.46;62.62;100601.86;4863192;60;1143001;-84
2021/09/15 12:32:44;;;;;;;22.15;11.22;;;;;;;24.57;60.53;100597.73;4863182;60;1143087;-84
2021/09/15 12:37:51;;;;;;;11.80;9.83;;;;;;;24.64;59.96;100590.42;4863032;59;1142932;-85
2021/09/15 12:43:05;;;;;;;13.53;10.40;;;;;;;24.74;61.00;100575.98;4862610;60;1140918;-82
2021/09/15 12:48:18;;;;;;;16.02;11.20;;;;;;;24.80;58.98;100563.47;4863326;60;1143139;-84
2021/09/15 12:53:24;;;;;;;17.83;10.80;;;;;;;24.82;59.66;100561.38;4863336;60;1142949;-85
2021/09/15 12:58:31;;;;;;;13.65;10.53;;;;;;;24.88;59.06;100557.33;4859490;60;1143053;-81
2021/09/15 13:03:42;;;;;;;10.28;8.75;;;;;;;24.99;59.89;100557.74;4858878;60;1143186;-82
2021/09/15 13:08:51;;;;;;;15.58;9.65;;;;;;;24.90;59.27;100547.09;4863418;60;1141130;-84
2021/09/15 13:13:57;;;;;;;14.70;9.08;;;;;;;24.85;59.27;100554.20;4863130;60;1141107;-83
2021/09/15 13:19:03;;;;;;;14.38;10.68;;;;;;;24.78;58.63;100559.61;4863243;60;1140942;-82
2021/09/15 13:24:09;;;;;;;19.02;9.65;;;;;;;24.71;58.74;100549.34;4862919;60;1142931;-86
2021/09/15 13:29:15;;;;;;;13.60;9.23;;;;;;;24.71;58.64;100541.23;4863309;60;1140811;-83
2021/09/15 13:34:21;;;;;;;16.50;9.10;;;;;;;24.70;59.26;100540.09;4863185;60;1140927;-81
2021/09/15 13:39:27;;;;;;;11.57;9.03;;;;;;;24.74;59.52;100542.69;4863327;59;1140975;-85
2021/09/15 13:44:33;;;;;;;14.10;9.25;;;;;;;24.99;58.52;100517.98;4863416;60;1140947;-85
2021/09/15 13:49:39;;;;;;;13.96;8.62;;;;;;;24.99;58.52;100517.98;4863932;60;1140910;-84
2021/09/15 13:54:48;;;;;;;11.57;8.13;;;;;;;25.16;57.93;100517.83;4863476;60;1140884;-85
2021/09/15 13:59:55;;;;;;;12.98;7.72;;;;;;;25.23;56.83;100506.95;4863414;60;1140875;-82
2021/09/15 14:05:06;;;;;;;13.80;7.85;;;;;;;25.24;56.29;100504.03;4863253;60;1140934;-86
2021/09/15 14:10:09;;;;;;;18.82;7.22;;;;;;;25.30;56.47;100505.58;4862427;60;1140871;-82
2021/09/15 14:15:15;;;;;;;10.23;6.10;;;;;;;25.37;56.22;100493.66;4844510;60;1140988;-82
2021/09/15 14:20:22;;;;;;;8.55;6.55;;;;;;;25.39;54.92;100491.56;4863367;60;1140962;-87
2021/09/15 14:25:27;;;;;;;10.25;7.30;;;;;;;25.37;54.58;100493.66;4863978;60;1138819;-86
2021/09/15 14:30:33;;;;;;;11.12;6.72;;;;;;;25.32;54.55;100486.73;4863833;60;1140986;-82
2021/09/15 14:35:39;;;;;;;11.60;6.97;;;;;;;25.36;54.13;100479.02;4863828;60;1140983;-83
2021/09/15 14:40:45;;;;;;;13.80;9.03;;;;;;;25.32;54.69;100471.00;4883965;59;1140915;-83
2021/09/15 14:45:51;;;;;;;12.45;6.72;;;;;;;25.26;54.50;100469.15;4893805;59;1141049;-84
2021/09/15 14:50:57;;;;;;;9.15;5.78;;;;;;;25.14;54.46;100473.06;4885843;59;1140904;-84
2021/09/15 14:56:02;;;;;;;13.05;6.70;;;;;;;25.04;54.44;100465.41;4894424;59;1138789;-84
2021/09/15 15:01:08;;;;;;;10.13;6.08;;;;;;;24.98;54.43;100466.78;4894437;59;1140860;-82
2021/09/15 15:06:14;;;;;;;6.53;5.95;;;;;;;24.94;54.53;100465.54;4881414;59;1140959;-82
2021/09/15 15:11:20;;;;;;;12.53;5.72;;;;;;;24.93;54.53;100462.48;4893951;59;1139036;-83
2021/09/15 15:16:26;;;;;;;15.80;6.00;;;;;;;24.89;54.67;100461.59;4894266;59;1140947;-82
2021/09/15 15:21:32;;;;;;;14.60;6.72;;;;;;;24.87;54.67;100459.62;4894390;59;1140861;-82
2021/09/15 15:26:38;;;;;;;9.50;6.65;;;;;;;24.84;54.79;100463.27;4894097;59;1141163;-83
2021/09/15 15:31:44;;;;;;;11.70;6.62;;;;;;;24.80;55.06;100457.96;4894506;59;1139014;-81
2021/09/15 15:36:50;;;;;;;12.00;7.10;;;;;;;24.71;55.25;100459.25;4894212;59;1140824;-81
2021/09/15 15:41:55;;;;;;;16.85;6.53;;;;;;;24.64;55.72;100457.07;4867563;59;1141006;-81
2021/09/15 15:47:01;;;;;;;7.67;6.62;;;;;;;24.65;56.28;100451.98;4810782;59;1140957;-83
2021/09/15 15:52:11;;;;;;;19.50;8.03;;;;;;;24.63;56.47;100447.30;4851864;60;1138890;-82
2021/09/15 15:57:16;;;;;;;13.65;7.37;;;;;;;24.55;56.41;100441.61;4863816;60;1141270;-84
2021/09/15 16:02:22;;;;;;;13.32;7.85;;;;;;;24.47;56.71;100448.06;4863524;60;1140961;-84
2021/09/15 16:07:28;;;;;;;12.93;8.78;;;;;;;24.38;57.06;100447.16;4863468;60;1141161;-82
2021/09/15 16:12:34;;;;;;;22.98;8.20;;;;;;;24.28;57.35;100448.12;4862956;59;1140889;-83
2021/09/15 16:17:41;;;;;;;20.35;11.60;;;;;;;24.19;57.89;100439.34;4861433;60;1140888;-86
2021/09/15 16:22:47;;;;;;;117.57;65.83;;;;;;;24.13;58.38;100438.84;4859947;60;1143053;-86
2021/09/15 16:27:53;;;;;;;66.90;21.15;;;;;;;24.09;58.87;100453.29;4851686;60;1144960;-84
2021/09/15 16:32:59;;;;;;;80.20;17.02;;;;;;;24.04;59.41;100449.02;4862499;60;1142916;-82
2021/09/15 16:38:05;;;;;;;85.97;14.65;;;;;;;23.93;59.96;100449.66;4860462;60;1142893;-81
2021/09/15 16:43:12;;;;;;;34.33;9.90;;;;;;;23.82;60.48;100443.53;4882807;59;1143104;-82
2021/09/15 16:48:18;;;;;;;51.98;10.98;;;;;;;23.69;61.06;100434.88;4893045;59;1141095;-81
2021/09/15 16:53:24;;;;;;;49.05;10.03;;;;;;;23.57;61.73;100428.42;4891599;59;1143277;-81
2021/09/15 16:58:30;;;;;;;48.50;10.93;;;;;;;23.39;62.67;100420.88;4878242;59;1143133;-82
2021/09/15 17:03:35;;;;;;;40.90;9.55;;;;;;;23.27;63.47;100417.13;4893591;59;1142976;-82
2021/09/15 17:08:41;;;;;;;35.88;9.70;;;;;;;23.11;64.13;100410.75;4894034;59;1140782;-81
2021/09/15 17:13:46;;;;;;;29.75;10.35;;;;;;;23.01;64.65;100412.50;4889059;59;1141222;-82
2021/09/15 17:18:52;;;;;;;21.70;11.65;;;;;;;22.96;64.90;100404.17;4885574;59;1143272;-83
2021/09/15 17:23:57;;;;;;;26.27;12.95;;;;;;;22.90;64.90;100405.00;4885718;59;1143352;-83
2021/09/15 17:29:03;;;;;;;24.10;11.12;;;;;;;22.87;65.03;100403.21;4885888;59;1143073;-81
2021/09/15 17:34:09;;;;;;;24.18;11.78;;;;;;;22.80;65.05;100403.17;4885781;59;1143100;-82
2021/09/15 17:39:14;;;;;;;17.80;12.07;;;;;;;22.75;65.10;100405.63;4886715;59;1143087;-82
2021/09/15 17:44:20;;;;;;;19.47;12.50;;;;;;;22.69;65.32;100412.64;4855081;59;1143101;-83
2021/09/15 17:49:27;;;;;;;20.65;13.13;;;;;;;22.62;65.40;100406.37;4855091;60;1143169;-81
2021/09/15 17:54:34;;;;;;;12.70;11.40;;;;;;;22.57;65.56;100400.77;4855219;60;1143165;-82
2021/09/15 17:59:40;;;;;;;16.90;11.90;;;;;;;22.49;65.70;100403.61;4855359;60;1143022;-81
2021/09/15 18:04:46;;;;;;;21.02;12.65;;;;;;;22.44;65.85;100398.84;4855832;60;1143099;-81
2021/09/15 18:09:52;;;;;;;15.28;12.00;;;;;;;22.38;66.01;100402.83;4855545;60;1143286;-82
2021/09/15 18:14:57;;;;;;;22.17;14.25;;;;;;;22.35;66.21;100409.96;4855249;59;1143131;-82
2021/09/15 18:20:06;;;;;;;16.82;12.65;;;;;;;22.32;66.32;100407.14;4854997;60;1143063;-82
2021/09/15 18:25:12;;;;;;;23.57;14.68;;;;;;;22.30;66.46;100408.39;4854851;60;1143308;-81
2021/09/15 18:30:18;;;;;;;19.94;13.52;;;;;;;22.29;66.65;100411.61;4853833;60;1143241;-81
2021/09/15 18:35:24;;;;;;;30.67;13.70;;;;;;;22.24;66.92;100408.66;4854342;60;1143080;-84
2021/09/15 18:40:30;;;;;;;20.97;14.20;;;;;;;22.16;67.00;100401.23;4855935;60;1143058;-80
2021/09/15 18:45:36;;;;;;;19.48;12.88;;;;;;;22.09;67.38;100403.37;4869014;59;1143160;-80
2021/09/15 18:50:42;;;;;;;17.12;13.68;;;;;;;21.96;67.99;100397.03;4886069;59;1143079;-81
2021/09/15 18:55:48;;;;;;;22.42;13.58;;;;;;;21.96;67.99;100397.03;4886060;59;1143042;-83
2021/09/15 19:00:53;;;;;;;28.73;13.70;;;;;;;21.91;67.91;100396.27;4886036;59;1143445;-81
2021/09/15 19:05:59;;;;;;;22.90;14.58;;;;;;;21.84;68.19;100397.26;4885792;59;1143147;-80
2021/09/15 19:11:05;;;;;;;25.43;14.73;;;;;;;21.80;68.51;100389.25;4885615;59;1143066;-85
2021/09/15 19:16:13;;;;;;;28.95;15.08;;;;;;;21.73;68.41;100394.05;4885817;59;1143094;-85
2021/09/15 19:21:19;;;;;;;24.04;15.22;;;;;;;21.70;68.56;100398.47;4886297;59;1143009;-84
2021/09/15 19:26:24;;;;;;;23.83;14.37;;;;;;;21.65;68.86;100391.51;4886731;59;1143169;-84
2021/09/15 19:31:30;;;;;;;29.45;15.00;;;;;;;21.64;69.14;100391.70;4879139;59;1143085;-84
2021/09/15 19:36:36;;;;;;;19.12;14.55;;;;;;;21.60;69.03;100380.99;4886563;59;1143190;-84
2021/09/15 19:41:42;;;;;;;35.85;16.42;;;;;;;21.57;69.22;100388.10;4883608;59;1143144;-85
2021/09/15 19:46:48;;;;;;;31.12;17.25;;;;;;;21.52;69.31;100380.63;4878002;59;1143255;-85
2021/09/15 19:51:54;;;;;;;23.55;14.90;;;;;;;21.46;69.81;100379.21;4878128;59;1143125;-84
2021/09/15 19:57:00;;;;;;;18.75;15.18;;;;;;;21.39;69.82;100375.09;4884962;59;1143038;-85
2021/09/15 20:02:09;;;;;;;22.73;15.18;;;;;;;21.35;70.13;100373.84;4885742;59;1143241;-83
2021/09/15 20:07:14;;;;;;;22.87;15.48;;;;;;;21.30;70.43;100366.34;4870896;59;1143042;-85
2021/09/15 20:12:20;;;;;;;24.57;16.02;;;;;;;21.26;70.38;100358.84;4891898;59;1143176;-85
2021/09/15 20:17:26;;;;;;;23.65;15.53;;;;;;;21.23;70.43;100357.39;4892834;59;1142931;-85
2021/09/15 20:22:32;;;;;;;28.57;15.72;;;;;;;21.21;70.57;100348.67;4886357;59;1143136;-84
2021/09/15 20:27:38;;;;;;;24.35;16.48;;;;;;;21.20;70.68;100347.52;4893155;59;1143029;-86
2021/09/15 20:32:44;;;;;;;25.27;17.17;;;;;;;21.18;70.73;100345.50;4893115;59;1143003;-85
2021/09/15 20:37:52;;;;;;;25.00;16.35;;;;;;;21.14;70.86;100338.31;4893136;59;1142873;-86
2021/09/15 20:42:58;;;;;;;25.57;15.80;;;;;;;21.09;71.08;100335.36;4891729;59;1142999;-86
2021/09/15 20:48:05;;;;;;;23.15;15.30;;;;;;;21.08;71.13;100330.20;4888811;59;1143313;-85
2021/09/15 20:53:11;;;;;;;24.05;15.95;;;;;;;21.04;71.21;100328.40;4883632;59;1143209;-86
2021/09/15 20:58:16;;;;;;;27.70;15.65;;;;;;;21.02;71.31;100330.44;4884254;59;1143029;-85
2021/09/15 21:03:22;;;;;;;23.32;15.60;;;;;;;20.97;71.45;100322.94;4884337;59;1143175;-84
2021/09/15 21:08:30;;;;;;;28.52;14.90;;;;;;;20.94;71.71;100317.10;4884185;59;1143195;-85
2021/09/15 21:13:35;;;;;;;31.70;16.30;;;;;;;20.93;71.63;100328.37;4884913;59;1143060;-86
2021/09/15 21:18:42;;;;;;;31.80;15.93;;;;;;;20.94;71.88;100319.28;4885943;59;1143406;-86
2021/09/15 21:23:47;;;;;;;20.27;16.15;;;;;;;20.92;72.10;100316.48;4886107;59;1143211;-85
2021/09/15 21:28:53;;;;;;;21.02;15.88;;;;;;;20.86;72.21;100313.20;4886078;59;1143115;-87
2021/09/15 21:33:59;;;;;;;21.30;14.25;;;;;;;20.81;72.47;100310.25;4887135;59;1143322;-84
2021/09/15 21:39:05;;;;;;;20.08;15.03;;;;;;;20.76;72.92;100310.84;4887192;59;1143009;-85
2021/09/15 21:44:11;;;;;;;21.82;15.40;;;;;;;20.66;73.38;100295.51;4880196;59;1143097;-85
2021/09/15 21:49:17;;;;;;;24.30;15.93;;;;;;;20.66;73.38;100295.51;4876479;59;1143260;-85
2021/09/15 21:54:23;;;;;;;21.10;15.37;;;;;;;20.68;73.22;100295.64;4856755;60;1143290;-82
2021/09/15 21:59:29;;;;;;;26.70;14.77;;;;;;;20.63;73.21;100293.20;4862629;60;1142982;-84
2021/09/15 22:04:35;;;;;;;30.10;15.18;;;;;;;20.61;73.36;100288.55;4863168;60;1143114;-82
2021/09/15 22:09:41;;;;;;;27.27;16.48;;;;;;;20.58;73.39;100283.55;4863028;60;1143009;-82
2021/09/15 22:14:47;;;;;;;21.77;14.63;;;;;;;20.55;73.58;100291.47;4863175;60;1143006;-81
2021/09/15 22:19:53;;;;;;;23.73;14.80;;;;;;;20.50;73.65;100283.12;4863048;60;1143031;-84
2021/09/15 22:24:59;;;;;;;21.90;14.73;;;;;;;20.50;73.69;100283.64;4863286;60;1143019;-81
2021/09/15 22:30:08;;;;;;;28.60;15.85;;;;;;;20.50;73.80;100276.92;4863217;60;1143014;-83
2021/09/15 22:35:23;;;;;;;23.32;14.60;;;;;;;20.48;73.94;100274.94;4874642;60;1143017;-83
2021/09/15 22:40:29;;;;;;;24.27;14.65;;;;;;;20.40;73.90;100262.97;4766246;61;1143013;-84
2021/09/15 22:45:35;;;;;;;20.15;15.38;;;;;;;20.45;73.92;100264.59;4766985;61;1143000;-84
2021/09/15 22:50:44;;;;;;;22.82;15.60;;;;;;;20.43;73.96;100259.41;4769907;60;1143032;-83
2021/09/15 22:55:50;;;;;;;19.20;14.95;;;;;;;20.43;74.07;100256.72;4807514;60;1142928;-82
2021/09/15 23:00:55;;;;;;;20.72;14.30;;;;;;;20.38;74.00;100267.70;4807359;60;1143114;-82
2021/09/15 23:06:01;;;;;;;26.23;16.25;;;;;;;20.37;74.01;100262.83;4807552;60;1142893;-84